Etusivu
METAR-TAF:

METAR-TAF

Lentoasemat :

Norrköping, Ruotsi

Leveyspiiri: 58-35N, Pituuspiiri: 016-09E, korkeus merenpinnasta: 34 m

Tämänhetkinen sää

Tämä raportti tehtiin 18 minuuttia sitten, kello 15.20 UTC
Tuuli 3 kn eri suunnista
Lämpötila 22°C
Kosteus 46%
Ilmanpaine 1011 hPa
Näkyvyys 10 km tai enemmän

METAR: ESSP 231520Z AUTO VRB03KT 9999 FEW062/// 22/10 Q1011

Aika: 17:38 (15:38 UTC)


TAF: puuttuu

Säähavainnot ja -ennusteet yli 4000 lentoasemalta (METAR- ja TAF-raportit).

Käytössä olevat sääasemat on merkitty karttaan keltaisilla ja punaisilla pisteillä.

Aseta hiiri pisteen päälle nähdäksesi sääaseman nimen.

Klikkaa sitten nähdäksesi säähavainnot ja -ennusteet.

Kartan vaihtaminen: klikkaa mustalla rastilla varustettuja vihreitä pisteitä, niin voit zoomata sisään; viivalla varustettua vihreää pistettä, niin voit zoomata ulos tai vihreitä nuolia, niin pääset viereisille kartoille.


METAR-TAF: